Ziguinchor, Senegal

1:33 PM GMT on July 26, 2014 (GMT +0000)
Ziguinchor (GOGG) Elev 75 ft | 12.55 °N, 16.27 °W | Change Station

Current weather conditions updated 33 minutes ago

Light Thunderstorms and Rain
Light Thunderstorm Rain
75 °F
Feels Like 75 °F
N
9
Wind Variable Wind from East

Today is forecast to be Cooler than yesterday. Showers and thunderstorms.

Today
High -- | Low -- °F
--% Chance of Precip.
Yesterday
High -- | Low -- °F
Precip. -- in
6:49 AM 7:33 PM
Waning Crescent, 0% visible
Pressure 29.95 in
Visibility 5.0 miles
Clouds Scattered Clouds 1300 ft
Few 2600 ft
Mostly Cloudy 13000 ft
Dew Point 73 °F
Humidity 94%
Rainfall 0.00 in
Snow Depth Not available.
UV 10 out of 12
Pollen Not available.
Air Quality Not available.
Flu Activity Not available.
METAR GOGG 261300Z 08008KT 8000 -TSRA SCT013 FEW026CB BKN130 24/23 Q1014

More Conditions Fewer Conditions

Pressure 29.95 in
Visibility 5.0 miles
Clouds Scattered Clouds 1300 ft
Few 2600 ft
Mostly Cloudy 13000 ft
Dew Point 73 °F
Humidity 94%
Rainfall 0.00 in
Snow Depth Not available.
UV 10 out of 12
Pollen Not available.
Air Quality Not available.
Flu Activity Not available.
METAR GOGG 261300Z 08008KT 8000 -TSRA SCT013 FEW026CB BKN130 24/23 Q1014

More Conditions Fewer Conditions

10-Day Weather Forecast

Almanac

Astronomy

Jul. 26, 2014 Rise Set
Actual Time 6:49 AM GMT 7:33 PM GMT
Civil Twilight 6:27 AM GMT 7:55 PM GMT
Nautical Twilight 6:00 AM GMT 8:22 PM GMT
Astronomical Twilight 5:33 AM GMT 8:49 PM GMT
Moon 6:22 AM GMT 7:13 PM GMT
Length of Visible Light 13h 28m
Length of Day
12h 43m
Tomorrow will be 0m 29s shorter.
Waning Crescent, 0% of the Moon is Illuminated
Today
Waning Crescent
Jul 26
New
Aug 3
First Quarter
Aug 10
Full
Aug 17
Last Quarter

Yesterday's Extremes

Country Highs Country Lows

Community

WunderPhotos

Upload Photos

1,737,565 photos uploaded!

Nearby

Snow Depth

Not available.

Earthquake Activity

City Distance Mag. Time & Date
No recent earthquake activity has been reported nearby.
Minimum magnitude displayed is 2.5.

Coastal Water Temperatures

Place Temperature
No Stations Reporting

Nearby Weather Stations

There are no personal weather stations in this area.